Terminal Aerodrome Forecast
Issued by NWS

Home | Current Version | Previous Version | Text Only | Print | Product List | Glossary On
Versions: 1 2 3 4 5 6 7 8 9 10 11 12 13 14 15 16 17 18 19 20 21
000
FTUS43 KAPX 271359 AAB
TAFMBL
TAF AMD
KMBL 271359Z 2714/2812 VRB03KT P6SM SHRA SCT030 OVC050
      TEMPO 2714/2716 2SM RA BR OVC030
     FM271600 11005KT 6SM SHRA OVC030
     FM271800 12007KT 3SM SHRA BR OVC010
     FM272200 15008KT 5SM SHRA OVC015
     FM280100 18008KT 5SM SHRA BKN008
     FM280300 19008KT 3SM SHRA BR BKN003
     FM280500 24008KT 1SM SHRA BR BKN003
     FM280900 30008KT 1SM SHRA BR BKN003=

USA.gov is the U.S. government's official web portal to all federal, state and local government web resources and services.